createdAt,value
2022-10-14T00:02:21.984Z,13.70
2022-10-14T00:04:52.490Z,13.70
2022-10-14T00:07:23.340Z,13.70
2022-10-14T00:10:07.696Z,13.70
2022-10-14T00:12:37.852Z,13.80
2022-10-14T00:15:06.118Z,13.70
2022-10-14T00:17:40.799Z,13.80
2022-10-14T00:20:08.746Z,13.80
2022-10-14T00:22:35.601Z,13.80
2022-10-14T00:25:02.403Z,13.80
2022-10-14T00:36:23.650Z,13.80
2022-10-14T00:38:57.851Z,13.80
2022-10-14T00:41:33.338Z,13.80
2022-10-14T00:44:10.658Z,13.80
2022-10-14T00:46:47.998Z,13.80
2022-10-14T00:49:33.353Z,13.80
2022-10-14T00:52:10.235Z,13.90
2022-10-14T00:54:44.366Z,13.80
2022-10-14T00:57:19.019Z,13.80
2022-10-14T01:09:41.098Z,13.80
2022-10-14T01:12:30.055Z,13.80
2022-10-14T01:15:18.977Z,13.80
2022-10-14T01:18:18.526Z,13.80
2022-10-14T01:21:14.230Z,13.80
2022-10-14T01:23:43.795Z,13.80
2022-10-14T01:26:11.828Z,13.80
2022-10-14T01:29:23.338Z,13.70
2022-10-14T01:32:12.630Z,13.70
2022-10-14T01:35:06.198Z,13.70
2022-10-14T01:37:37.570Z,13.60
2022-10-14T01:40:21.707Z,13.60
2022-10-14T01:42:52.915Z,13.60
2022-10-14T01:45:23.312Z,13.50
2022-10-14T01:47:56.020Z,13.50
2022-10-14T01:50:26.268Z,13.50
2022-10-14T01:53:11.565Z,13.50
2022-10-14T01:55:45.301Z,13.40
2022-10-14T01:58:18.356Z,13.40
2022-10-14T02:00:47.125Z,13.40
2022-10-14T02:03:13.838Z,13.30
2022-10-14T02:06:00.869Z,13.40
2022-10-14T02:08:37.695Z,13.40
2022-10-14T02:11:16.187Z,13.30
2022-10-14T02:14:23.054Z,13.40
2022-10-14T02:17:20.450Z,13.40
2022-10-14T02:20:03.687Z,13.40
2022-10-14T02:22:47.939Z,13.40
2022-10-14T02:25:54.758Z,13.40
2022-10-14T02:28:49.740Z,13.40
2022-10-14T02:31:21.669Z,13.40
2022-10-14T02:34:15.715Z,13.40
2022-10-14T02:36:44.711Z,13.40
2022-10-14T02:39:15.452Z,13.40
2022-10-14T02:41:42.485Z,13.40
2022-10-14T02:44:11.263Z,13.40
2022-10-14T02:46:42.912Z,13.40
2022-10-14T02:49:10.295Z,13.40
2022-10-14T02:51:40.001Z,13.40
2022-10-14T02:54:20.073Z,13.40
2022-10-14T02:56:46.753Z,13.40
2022-10-14T02:59:16.064Z,13.40
2022-10-14T03:01:43.915Z,13.40
2022-10-14T03:04:11.710Z,13.40
2022-10-14T03:06:43.662Z,13.30
2022-10-14T03:09:10.481Z,13.30
2022-10-14T03:11:40.241Z,13.30
2022-10-14T03:14:15.649Z,13.30
2022-10-14T03:16:47.055Z,13.30
2022-10-14T03:19:22.699Z,13.30
2022-10-14T03:21:53.093Z,13.20
2022-10-14T03:24:21.871Z,13.20
2022-10-14T03:27:02.540Z,13.20
2022-10-14T03:29:32.634Z,13.20
2022-10-14T03:32:43.978Z,13.20
2022-10-14T03:35:38.144Z,13.10
2022-10-14T03:38:13.316Z,13.10
2022-10-14T03:40:44.799Z,13.10
2022-10-14T03:43:13.976Z,13.00
2022-10-14T03:45:57.529Z,13.00
2022-10-14T03:48:27.987Z,13.00
2022-10-14T03:51:03.594Z,13.00
2022-10-14T03:53:33.442Z,12.90
2022-10-14T04:04:42.281Z,12.90
2022-10-14T04:07:09.394Z,12.90
2022-10-14T04:09:50.131Z,12.90
2022-10-14T04:12:17.331Z,12.80
2022-10-14T04:15:03.968Z,12.80
2022-10-14T04:17:41.620Z,12.90
2022-10-14T04:20:14.304Z,12.80
2022-10-14T04:22:41.646Z,12.80
2022-10-14T04:25:40.201Z,12.80
2022-10-14T04:28:07.911Z,12.80
2022-10-14T04:30:52.783Z,12.90
2022-10-14T04:33:26.177Z,12.80
2022-10-14T04:36:05.327Z,12.80
2022-10-14T04:38:37.533Z,12.80
2022-10-14T04:41:08.031Z,12.90
2022-10-14T04:43:35.463Z,12.90
2022-10-14T04:46:17.861Z,12.90
2022-10-14T04:48:47.603Z,12.90
2022-10-14T04:51:17.035Z,12.90
2022-10-14T04:54:06.124Z,12.80
2022-10-14T04:56:43.712Z,12.80
2022-10-14T04:59:12.982Z,12.80
2022-10-14T05:02:11.467Z,12.80
2022-10-14T05:04:51.833Z,12.90
2022-10-14T05:07:34.317Z,12.80
2022-10-14T05:10:17.410Z,12.80
2022-10-14T05:12:46.274Z,12.90
2022-10-14T05:15:16.403Z,12.80
2022-10-14T05:18:01.902Z,12.80
2022-10-14T05:20:44.527Z,12.80
2022-10-14T05:23:12.653Z,12.70
2022-10-14T05:26:04.606Z,12.70
2022-10-14T05:28:34.826Z,12.70
2022-10-14T05:31:04.595Z,12.70
2022-10-14T05:33:35.740Z,12.70
2022-10-14T05:36:02.979Z,12.70
2022-10-14T05:38:35.349Z,12.60
2022-10-14T05:41:09.682Z,12.60
2022-10-14T05:43:37.755Z,12.50
2022-10-14T05:46:06.439Z,12.50
2022-10-14T05:48:37.592Z,12.40
2022-10-14T05:51:07.617Z,12.50
2022-10-14T05:53:39.351Z,12.40
2022-10-14T05:56:11.634Z,12.50
2022-10-14T05:58:40.837Z,12.50
2022-10-14T06:01:12.953Z,12.50
2022-10-14T06:03:45.280Z,12.60
2022-10-14T06:06:15.124Z,12.50
2022-10-14T06:08:44.503Z,12.60
2022-10-14T06:11:15.360Z,12.60
2022-10-14T06:13:43.121Z,12.60
2022-10-14T06:16:15.291Z,12.60
2022-10-14T06:18:43.371Z,12.70
2022-10-14T06:21:12.701Z,12.70
2022-10-14T06:23:45.137Z,12.80
2022-10-14T06:26:11.976Z,12.80
2022-10-14T06:28:39.240Z,12.80
2022-10-14T06:31:09.694Z,12.90
2022-10-14T06:33:39.329Z,13.00
2022-10-14T06:36:06.721Z,13.00
2022-10-14T06:38:33.600Z,13.00
2022-10-14T06:41:03.019Z,13.10
2022-10-14T06:43:31.297Z,13.10
2022-10-14T06:46:00.598Z,13.10
2022-10-14T06:48:52.890Z,13.20
2022-10-14T06:51:19.701Z,13.20
2022-10-14T06:53:46.505Z,13.20
2022-10-14T06:56:13.339Z,13.20
2022-10-14T06:58:45.617Z,13.30
2022-10-14T07:07:06.422Z,13.40
2022-10-14T07:09:33.435Z,13.50
2022-10-14T07:12:04.492Z,13.50
2022-10-14T07:14:33.594Z,13.70
2022-10-14T07:20:04.352Z,13.80
2022-10-14T07:22:33.988Z,13.90
2022-10-14T07:25:07.256Z,14.00
2022-10-14T07:27:34.471Z,14.00
2022-10-14T07:30:01.180Z,14.00
2022-10-14T07:32:29.192Z,14.10
2022-10-14T07:34:58.649Z,14.10
2022-10-14T07:37:30.918Z,14.20
2022-10-14T07:39:57.591Z,14.30
2022-10-14T07:42:24.365Z,14.40
2022-10-14T07:44:57.167Z,14.50
2022-10-14T07:47:24.083Z,14.50
2022-10-14T07:49:51.041Z,14.60
2022-10-14T07:52:22.008Z,14.60
2022-10-14T07:54:48.613Z,14.60
2022-10-14T07:57:16.215Z,14.70
2022-10-14T07:59:43.330Z,14.70
2022-10-14T08:02:13.328Z,14.70
2022-10-14T08:04:40.028Z,14.80
2022-10-14T08:07:06.773Z,14.80
2022-10-14T08:09:40.245Z,14.80
2022-10-14T08:12:07.469Z,14.90
2022-10-14T08:14:34.329Z,14.90
2022-10-14T08:17:02.042Z,15.00
2022-10-14T08:19:30.196Z,15.00
2022-10-14T08:21:57.146Z,15.10
2022-10-14T08:24:23.883Z,15.20
2022-10-14T08:26:58.292Z,15.20
2022-10-14T08:29:26.194Z,15.30
2022-10-14T08:31:55.970Z,15.40
2022-10-14T08:34:23.730Z,15.50
2022-10-14T08:36:51.068Z,15.60
2022-10-14T08:39:20.348Z,15.60
2022-10-14T08:42:02.667Z,15.60
2022-10-14T08:44:50.429Z,15.70
2022-10-14T08:50:52.981Z,15.80
2022-10-14T08:53:27.953Z,15.90
2022-10-14T08:55:59.729Z,16.00
2022-10-14T08:58:31.272Z,16.10
2022-10-14T09:01:13.481Z,16.10
2022-10-14T09:03:41.577Z,16.20
2022-10-14T09:06:33.619Z,16.20
2022-10-14T09:09:08.479Z,16.30
2022-10-14T09:11:41.744Z,16.30
2022-10-14T09:14:16.399Z,16.40
2022-10-14T09:16:54.168Z,16.40
2022-10-14T09:19:51.070Z,16.50
2022-10-14T09:22:43.137Z,16.50
2022-10-14T09:25:15.392Z,16.50
2022-10-14T09:27:48.885Z,16.60
2022-10-14T09:30:17.164Z,16.60
2022-10-14T09:32:45.724Z,16.60
2022-10-14T09:35:24.114Z,16.60
2022-10-14T09:37:51.870Z,16.60
2022-10-14T09:40:36.814Z,16.70
2022-10-14T09:43:10.473Z,16.70
2022-10-14T09:45:57.599Z,16.80
2022-10-14T09:48:43.432Z,16.90
2022-10-14T09:51:23.066Z,16.90
2022-10-14T09:54:23.664Z,17.00
2022-10-14T09:57:03.160Z,17.00
2022-10-14T09:59:30.620Z,17.10
2022-10-14T10:02:02.054Z,17.20
2022-10-14T10:04:36.398Z,17.20
2022-10-14T10:07:23.378Z,17.30
2022-10-14T10:10:19.675Z,17.30
2022-10-14T10:12:48.799Z,17.40
2022-10-14T10:15:20.845Z,17.40
2022-10-14T10:17:49.028Z,17.40
2022-10-14T10:20:32.696Z,17.50
2022-10-14T10:23:32.201Z,17.50
2022-10-14T10:26:25.231Z,17.50
2022-10-14T10:32:20.487Z,17.40
2022-10-14T10:35:16.702Z,17.40
2022-10-14T10:38:10.499Z,17.30
2022-10-14T10:40:48.007Z,17.20
2022-10-14T10:43:43.072Z,17.10
2022-10-14T10:46:31.835Z,17.10
2022-10-14T10:49:15.538Z,17.00
2022-10-14T10:52:04.978Z,17.00
2022-10-14T10:55:09.565Z,16.90
2022-10-14T10:57:53.823Z,16.80
2022-10-14T11:00:23.002Z,16.70
2022-10-14T11:03:08.683Z,16.60
2022-10-14T11:06:01.516Z,16.40
2022-10-14T11:08:49.928Z,16.30
2022-10-14T11:11:55.253Z,16.20
2022-10-14T11:14:45.585Z,16.20
2022-10-14T11:17:49.538Z,16.30
2022-10-14T11:20:52.804Z,16.40
2022-10-14T11:23:38.773Z,16.40
2022-10-14T11:26:17.885Z,16.40
2022-10-14T11:29:02.515Z,16.40
2022-10-14T11:31:45.358Z,16.50
2022-10-14T11:34:30.876Z,16.50
2022-10-14T11:37:54.897Z,16.50
2022-10-14T11:40:40.211Z,16.70
2022-10-14T11:43:23.627Z,16.90
2022-10-14T11:45:57.056Z,17.00
2022-10-14T11:48:37.198Z,17.10
2022-10-14T11:51:34.915Z,17.10
2022-10-14T11:54:24.628Z,17.10
2022-10-14T11:56:54.737Z,17.10
2022-10-14T12:00:23.051Z,17.10
2022-10-14T12:03:21.298Z,17.20
2022-10-14T12:06:24.800Z,17.20
2022-10-14T12:09:19.422Z,17.30
2022-10-14T12:12:03.321Z,17.40
2022-10-14T12:14:35.562Z,17.40
2022-10-14T12:17:28.158Z,17.50
2022-10-14T12:19:56.491Z,17.60
2022-10-14T12:22:32.504Z,17.60
2022-10-14T12:25:13.631Z,17.60
2022-10-14T12:27:46.478Z,17.70
2022-10-14T12:30:40.236Z,17.70
2022-10-14T12:33:09.914Z,17.70
2022-10-14T12:36:01.600Z,17.80
2022-10-14T12:38:35.481Z,17.80
2022-10-14T12:41:54.411Z,17.80
2022-10-14T12:44:32.889Z,17.90
2022-10-14T12:47:00.379Z,18.00
2022-10-14T12:49:33.352Z,18.10
2022-10-14T12:52:04.092Z,18.20
2022-10-14T12:54:35.244Z,18.20
2022-10-14T12:57:04.717Z,18.30
2022-10-14T12:59:38.554Z,18.40
2022-10-14T13:02:33.451Z,18.40
2022-10-14T13:05:07.837Z,18.40
2022-10-14T13:07:40.571Z,18.40
2022-10-14T13:10:46.520Z,18.30
2022-10-14T13:13:48.096Z,18.30
2022-10-14T13:16:42.703Z,18.40
2022-10-14T13:19:32.141Z,18.50
2022-10-14T13:22:00.425Z,18.40
2022-10-14T13:24:38.523Z,18.40
2022-10-14T13:27:23.054Z,18.40
2022-10-14T13:30:24.046Z,18.40
2022-10-14T13:33:22.463Z,18.40
2022-10-14T13:36:47.129Z,18.30
2022-10-14T13:39:52.340Z,18.10
2022-10-14T13:42:35.378Z,18.00
2022-10-14T13:45:14.065Z,17.90
2022-10-14T13:48:17.023Z,17.80
2022-10-14T13:51:17.231Z,17.70
2022-10-14T13:53:56.543Z,17.70
2022-10-14T13:56:25.237Z,17.60
2022-10-14T13:58:56.000Z,17.40
2022-10-14T14:01:45.844Z,17.40
2022-10-14T14:04:29.045Z,17.30
2022-10-14T14:07:18.718Z,17.20
2022-10-14T14:09:52.514Z,17.20
2022-10-14T14:12:21.198Z,17.10
2022-10-14T14:14:49.074Z,17.10
2022-10-14T14:17:24.657Z,17.10
2022-10-14T14:19:52.161Z,17.10
2022-10-14T14:22:23.737Z,17.10
2022-10-14T14:24:51.145Z,17.10
2022-10-14T14:27:20.693Z,17.10
2022-10-14T14:29:50.253Z,17.00
2022-10-14T14:32:25.833Z,17.00
2022-10-14T14:37:54.966Z,17.00
2022-10-14T14:40:26.518Z,17.00
2022-10-14T14:43:01.230Z,17.00
2022-10-14T14:45:57.823Z,17.00
2022-10-14T14:48:24.875Z,17.00
2022-10-14T14:50:58.480Z,17.10
2022-10-14T14:53:29.042Z,17.10
2022-10-14T14:55:55.896Z,17.10
2022-10-14T14:58:46.715Z,17.10
2022-10-14T15:10:32.745Z,17.20
2022-10-14T15:13:31.193Z,17.20
2022-10-14T15:16:01.857Z,17.20
2022-10-14T15:18:33.946Z,17.20
2022-10-14T15:21:07.790Z,17.20
2022-10-14T15:23:41.850Z,17.20
2022-10-14T15:26:39.021Z,17.30
2022-10-14T15:29:16.130Z,17.20
2022-10-14T15:31:48.117Z,17.20
2022-10-14T15:34:21.512Z,17.20
2022-10-14T15:37:11.236Z,17.10
2022-10-14T15:39:39.317Z,17.20
2022-10-14T15:42:11.823Z,17.10
2022-10-14T15:44:43.492Z,17.10
2022-10-14T15:47:22.174Z,17.10
2022-10-14T15:49:50.378Z,17.00
2022-10-14T15:52:18.509Z,17.00
2022-10-14T15:54:50.485Z,16.90
2022-10-14T15:57:20.270Z,16.90
2022-10-14T15:59:53.835Z,16.90
2022-10-14T16:02:35.154Z,16.90
2022-10-14T16:07:49.282Z,16.90
2022-10-14T16:10:20.332Z,16.80
2022-10-14T16:12:50.335Z,16.80
2022-10-14T16:15:49.734Z,16.80
2022-10-14T16:18:18.634Z,16.70
2022-10-14T16:20:45.488Z,16.70
2022-10-14T16:23:16.923Z,16.70
2022-10-14T16:25:48.507Z,16.70
2022-10-14T16:28:20.994Z,16.60
2022-10-14T16:30:49.367Z,16.60
2022-10-14T16:33:30.320Z,16.60
2022-10-14T16:35:57.001Z,16.50
2022-10-14T16:38:29.758Z,16.50
2022-10-14T16:41:08.005Z,16.50
2022-10-14T16:43:37.374Z,16.40
2022-10-14T16:46:05.581Z,16.40
2022-10-14T16:48:34.725Z,16.40
2022-10-14T16:51:02.289Z,16.30
2022-10-14T16:53:46.369Z,16.30
2022-10-14T16:56:40.075Z,16.30
2022-10-14T16:59:13.368Z,16.30
2022-10-14T17:01:42.232Z,16.30
2022-10-14T17:04:13.530Z,16.30
2022-10-14T17:06:45.168Z,16.30
2022-10-14T17:09:16.662Z,16.30
2022-10-14T17:11:44.855Z,16.30
2022-10-14T17:14:21.397Z,16.20
2022-10-14T17:16:51.523Z,16.20
2022-10-14T17:19:45.050Z,16.30
2022-10-14T17:22:25.396Z,16.20
2022-10-14T17:24:54.820Z,16.20
2022-10-14T17:27:24.694Z,16.10
2022-10-14T17:29:53.396Z,16.10
2022-10-14T17:32:23.882Z,16.10
2022-10-14T17:34:53.467Z,16.10
2022-10-14T17:37:20.618Z,16.10
2022-10-14T17:39:48.454Z,16.00
2022-10-14T17:42:15.165Z,15.90
2022-10-14T17:44:43.878Z,15.90
2022-10-14T17:47:11.010Z,15.80
2022-10-14T17:49:37.806Z,15.80
2022-10-14T17:52:05.531Z,15.80
2022-10-14T17:54:32.340Z,15.80
2022-10-14T17:56:59.053Z,15.70
2022-10-14T17:59:28.065Z,15.70
2022-10-14T18:02:02.510Z,15.60
2022-10-14T18:04:34.118Z,15.60
2022-10-14T18:07:01.027Z,15.60
2022-10-14T18:09:28.073Z,15.60
2022-10-14T18:12:10.589Z,15.60
2022-10-14T18:14:42.240Z,15.60
2022-10-14T18:17:10.206Z,15.70
2022-10-14T18:19:37.908Z,15.70
2022-10-14T18:22:06.513Z,15.70
2022-10-14T18:24:37.378Z,15.70
2022-10-14T18:27:04.403Z,15.70
2022-10-14T18:29:32.380Z,15.70
2022-10-14T18:31:59.015Z,15.70
2022-10-14T18:34:26.655Z,15.70
2022-10-14T18:36:53.629Z,15.70
2022-10-14T18:39:24.126Z,15.70
2022-10-14T18:41:50.838Z,15.70
2022-10-14T18:44:18.690Z,15.70
2022-10-14T18:46:49.112Z,15.70
2022-10-14T18:49:19.193Z,15.70
2022-10-14T18:51:45.834Z,15.60
2022-10-14T18:54:20.302Z,15.60
2022-10-14T18:56:50.361Z,15.60
2022-10-14T18:59:19.669Z,15.60
2022-10-14T19:01:49.890Z,15.50
2022-10-14T19:04:43.326Z,15.50
2022-10-14T19:07:12.057Z,15.50
2022-10-14T19:09:42.930Z,15.50
2022-10-14T19:12:29.122Z,15.50
2022-10-14T19:14:57.627Z,15.50
2022-10-14T19:17:24.612Z,15.50
2022-10-14T19:19:51.372Z,15.50
2022-10-14T19:22:21.273Z,15.50
2022-10-14T19:24:51.912Z,15.40
2022-10-14T19:27:18.667Z,15.40
2022-10-14T19:29:49.953Z,15.40
2022-10-14T19:32:20.169Z,15.40
2022-10-14T19:34:53.360Z,15.40
2022-10-14T19:37:27.392Z,15.40
2022-10-14T19:39:57.201Z,15.30
2022-10-14T19:42:23.953Z,15.40
2022-10-14T19:44:57.541Z,15.40
2022-10-14T19:47:24.686Z,15.40
2022-10-14T19:49:54.150Z,15.30
2022-10-14T19:52:20.867Z,15.30
2022-10-14T19:54:47.608Z,15.30
2022-10-14T19:57:16.700Z,15.30
2022-10-14T19:59:43.377Z,15.20
2022-10-14T20:02:12.813Z,15.20
2022-10-14T20:04:41.964Z,15.10
2022-10-14T20:07:08.604Z,15.10
2022-10-14T20:09:35.737Z,15.00
2022-10-14T20:14:58.987Z,15.00
2022-10-14T20:17:27.362Z,15.00
2022-10-14T20:19:56.032Z,15.00
2022-10-14T20:22:24.694Z,15.00
2022-10-14T20:24:53.718Z,15.00
2022-10-14T20:27:21.751Z,14.90
2022-10-14T20:29:48.720Z,15.00
2022-10-14T20:32:17.436Z,15.00
2022-10-14T20:34:44.167Z,14.90
2022-10-14T20:37:12.265Z,15.00
2022-10-14T20:39:45.635Z,14.90
2022-10-14T20:42:12.259Z,14.90
2022-10-14T20:44:46.179Z,14.90
2022-10-14T20:47:13.398Z,14.90
2022-10-14T20:49:42.705Z,14.90
2022-10-14T20:52:09.694Z,14.90
2022-10-14T20:54:36.625Z,15.00
2022-10-14T20:57:03.402Z,15.00
2022-10-14T20:59:30.189Z,15.00
2022-10-14T21:01:57.140Z,15.00
2022-10-14T21:04:27.009Z,15.00
2022-10-14T21:06:53.598Z,15.00
2022-10-14T21:09:20.374Z,15.00
2022-10-14T21:11:49.637Z,15.00
2022-10-14T21:14:16.939Z,15.00
2022-10-14T21:16:43.592Z,15.00
2022-10-14T21:19:12.934Z,15.00
2022-10-14T21:21:44.540Z,15.00
2022-10-14T21:24:16.712Z,15.00
2022-10-14T21:26:45.019Z,15.00
2022-10-14T21:29:11.823Z,15.00
2022-10-14T21:31:43.623Z,15.00
2022-10-14T21:34:12.136Z,15.00
2022-10-14T21:36:41.448Z,15.00
2022-10-14T21:39:09.724Z,15.00
2022-10-14T21:41:38.546Z,15.00
2022-10-14T21:44:08.384Z,15.00
2022-10-14T21:46:36.753Z,14.90
2022-10-14T21:49:03.938Z,14.90
2022-10-14T22:03:44.799Z,14.90
2022-10-14T22:06:21.329Z,14.90
2022-10-14T22:08:51.925Z,14.90
2022-10-14T22:11:29.025Z,15.00
2022-10-14T22:14:27.786Z,15.00
2022-10-14T22:16:56.663Z,15.00
2022-10-14T22:19:25.929Z,15.00
2022-10-14T22:21:58.355Z,15.00
2022-10-14T22:24:30.459Z,15.00
2022-10-14T22:26:58.436Z,15.00
2022-10-14T22:29:25.475Z,15.00
2022-10-14T22:31:52.174Z,15.00
2022-10-14T22:34:23.098Z,15.00
2022-10-14T22:36:52.876Z,15.00
2022-10-14T22:39:20.655Z,15.00
2022-10-14T22:41:47.520Z,15.00
2022-10-14T22:44:14.748Z,15.00
2022-10-14T22:46:43.183Z,15.00
2022-10-14T22:49:11.791Z,15.00
2022-10-14T22:51:40.044Z,15.00
2022-10-14T22:54:06.861Z,15.00
2022-10-14T22:56:36.532Z,15.00
2022-10-14T22:59:07.646Z,15.00
2022-10-14T23:01:40.234Z,15.00
2022-10-14T23:04:11.076Z,15.00
2022-10-14T23:06:39.387Z,15.10
2022-10-14T23:09:06.242Z,15.00
2022-10-14T23:11:32.895Z,15.10
2022-10-14T23:14:06.154Z,15.10
2022-10-14T23:16:38.656Z,15.10
2022-10-14T23:19:05.660Z,15.00
2022-10-14T23:21:35.311Z,15.10
2022-10-14T23:24:05.844Z,15.10
2022-10-14T23:26:34.062Z,15.10
2022-10-14T23:29:05.207Z,15.10
2022-10-14T23:31:33.811Z,15.10
2022-10-14T23:34:02.824Z,15.10
2022-10-14T23:36:31.061Z,15.10
2022-10-14T23:39:00.851Z,15.10
2022-10-14T23:41:30.668Z,15.20
2022-10-14T23:43:58.536Z,15.20
2022-10-14T23:46:25.268Z,15.20
2022-10-14T23:49:01.117Z,15.20
2022-10-14T23:51:34.981Z,15.20
2022-10-14T23:54:04.367Z,15.30
2022-10-14T23:56:33.493Z,15.30
2022-10-14T23:59:00.275Z,15.30
